Terminal Aerodrome Forecast
Issued by NWS

Current Version | Previous Version | Text Only | Print | Product List | Glossary On
Versions: 1 2 3 4 5 6 7 8 9 10 11 12 13 14 15 16 17 18 19 20 21 22 23 24 25 26 27 28 29 30 31 32
000
FTUS41 KBOX 070532
TAFACK
TAF
KACK 070532Z 0706/0806 25014KT P6SM SCT150
     FM071300 28009KT P6SM FEW250
     FM071500 29004KT P6SM FEW250
     FM071700 00000KT P6SM FEW250
     FM072100 02007KT P6SM SCT250
     FM080000 06014G20KT P6SM BKN200
     FM080400 06022G29KT P6SM BKN025 BKN120=

USA.gov is the U.S. government's official web portal to all federal, state and local government web resources and services.